Time;durP1;ratioP1;P1;durP2;ratioP2;P2;SDS_P1;SDS_P2;PMS_P1;PMS_P2;Temp;Humidity;BMP_temperature;BMP_pressure;BME280_temperature;BME280_humidity;BME280_pressure;Samples;Min_cycle;Max_cycle;Signal;HPM_P1;HPM_P2
2021/12/04 00:00:36;;;;;;;5.90;4.80;;;5.70;99.90;;;;;;4989258;28;20056;-80
2021/12/04 00:03:02;;;;;;;7.63;5.50;;;5.60;99.90;;;;;;4984923;28;20482;-80
2021/12/04 00:05:27;;;;;;;6.37;4.30;;;5.60;99.90;;;;;;4970219;28;20027;-80
2021/12/04 00:07:53;;;;;;;4.33;3.20;;;5.70;99.90;;;;;;4987651;28;20038;-80
2021/12/04 00:10:22;;;;;;;6.10;4.17;;;5.80;99.90;;;;;;5004101;28;20038;-80
2021/12/04 00:12:48;;;;;;;2.67;2.30;;;5.70;99.90;;;;;;4971493;28;20022;-80
2021/12/04 00:15:13;;;;;;;4.63;4.03;;;5.80;99.90;;;;;;4986521;28;20027;-80
2021/12/04 00:17:39;;;;;;;3.47;2.60;;;5.80;99.90;;;;;;5002330;28;20113;-80
2021/12/04 00:20:07;;;;;;;4.83;2.60;;;5.80;99.90;;;;;;4955900;28;20503;-80
2021/12/04 00:22:33;;;;;;;4.83;3.13;;;5.80;99.90;;;;;;4963141;28;20502;-80
2021/12/04 00:24:59;;;;;;;8.00;3.47;;;5.80;99.90;;;;;;4952721;28;20020;-79
2021/12/04 00:27:25;;;;;;;4.43;3.27;;;5.70;99.90;;;;;;4967613;28;20046;-81
2021/12/04 00:29:51;;;;;;;3.20;2.60;;;5.70;99.90;;;;;;4974291;28;20030;-79
2021/12/04 00:32:27;;;;;;;2.90;2.27;;;5.70;99.90;;;;;;4970540;28;20475;-79
2021/12/04 00:35:04;;;;;;;4.03;3.73;;;5.70;99.90;;;;;;4983237;28;20046;-80
2021/12/04 00:51:19;;;;;;;9.73;4.70;;;5.60;99.90;;;;;;4972754;28;20549;-79
2021/12/04 00:53:44;;;;;;;4.10;3.70;;;5.60;99.90;;;;;;4966426;28;20027;-79
2021/12/04 00:56:10;;;;;;;6.00;3.17;;;5.60;99.90;;;;;;4973438;28;20398;-78
2021/12/04 00:58:35;;;;;;;4.17;3.77;;;5.50;99.90;;;;;;4980538;28;20088;-78
2021/12/04 01:01:02;;;;;;;4.50;2.90;;;5.50;99.90;;;;;;4974605;28;20442;-77
2021/12/04 01:03:28;;;;;;;4.60;3.70;;;5.50;99.90;;;;;;4957405;28;20121;-79
2021/12/04 01:05:54;;;;;;;6.43;4.17;;;5.50;99.90;;;;;;4975234;28;20109;-79
2021/12/04 01:08:19;;;;;;;4.80;3.97;;;5.50;99.90;;;;;;4982360;28;20158;-78
2021/12/04 01:10:45;;;;;;;2.60;2.40;;;5.50;99.90;;;;;;5007071;28;20051;-77
2021/12/04 01:13:11;;;;;;;4.83;3.33;;;5.50;99.90;;;;;;4953817;28;20122;-79
2021/12/04 01:15:43;;;;;;;4.63;2.97;;;5.50;99.90;;;;;;4997623;28;20042;-78
2021/12/04 01:18:10;;;;;;;2.97;2.10;;;5.50;99.90;;;;;;4982143;28;20447;-77
2021/12/04 01:20:37;;;;;;;2.33;1.70;;;5.50;99.90;;;;;;4979022;28;20038;-77
2021/12/04 01:23:03;;;;;;;2.20;1.70;;;5.50;99.90;;;;;;4974687;28;20562;-77
2021/12/04 01:25:30;;;;;;;3.30;2.57;;;5.50;99.90;;;;;;4949359;28;20121;-77
2021/12/04 01:27:56;;;;;;;2.77;2.17;;;5.50;99.90;;;;;;4989257;28;20039;-78
2021/12/04 01:30:21;;;;;;;3.20;2.73;;;5.50;99.90;;;;;;4962570;28;20099;-78
2021/12/04 01:32:47;;;;;;;2.73;2.10;;;5.60;99.90;;;;;;4965013;28;20035;-77
2021/12/04 01:35:13;;;;;;;3.00;2.13;;;5.70;99.90;;;;;;4956772;28;20468;-78
2021/12/04 01:37:38;;;;;;;3.03;1.70;;;5.70;99.90;;;;;;5002957;28;20039;-78
2021/12/04 01:40:05;;;;;;;2.37;1.70;;;5.70;99.90;;;;;;4975460;28;20459;-77
2021/12/04 01:42:34;;;;;;;2.10;1.23;;;5.70;99.90;;;;;;4970232;28;20035;-78
2021/12/04 01:45:01;;;;;;;2.43;2.00;;;5.70;99.90;;;;;;4957308;28;20031;-77
2021/12/04 01:47:27;;;;;;;2.80;2.03;;;5.70;99.90;;;;;;4965125;28;20151;-76
2021/12/04 01:49:54;;;;;;;2.20;1.30;;;5.80;99.90;;;;;;4989101;28;20554;-78
2021/12/04 01:52:21;;;;;;;2.27;1.80;;;5.80;99.90;;;;;;4972765;28;20023;-78
2021/12/04 01:54:50;;;;;;;2.27;1.40;;;5.80;99.90;;;;;;4975434;28;20035;-75
2021/12/04 01:57:16;;;;;;;1.20;0.73;;;5.80;99.90;;;;;;4974907;28;20027;-80
2021/12/04 01:59:43;;;;;;;2.20;1.40;;;5.80;99.90;;;;;;4972421;28;20046;-77
2021/12/04 02:02:09;;;;;;;3.03;1.50;;;5.80;99.90;;;;;;4975879;28;20518;-78
2021/12/04 02:04:35;;;;;;;2.03;1.40;;;5.80;99.90;;;;;;4973715;28;20023;-77
2021/12/04 02:07:03;;;;;;;2.00;1.30;;;5.90;99.90;;;;;;4976419;28;20099;-80
2021/12/04 02:09:34;;;;;;;1.80;1.10;;;5.80;99.90;;;;;;4982317;28;20042;-77
2021/12/04 02:12:03;;;;;;;2.43;1.33;;;5.90;99.90;;;;;;4974979;28;20031;-78
2021/12/04 02:14:30;;;;;;;4.47;1.80;;;5.90;99.90;;;;;;4971930;28;20039;-76
2021/12/04 02:16:55;;;;;;;1.83;1.53;;;5.90;99.90;;;;;;4974155;28;20475;-77
2021/12/04 02:19:22;;;;;;;2.03;1.70;;;5.90;99.90;;;;;;4971266;28;20113;-77
2021/12/04 02:21:47;;;;;;;3.10;1.93;;;5.90;99.90;;;;;;4974809;28;20039;-77
2021/12/04 02:24:13;;;;;;;2.53;1.97;;;5.90;99.90;;;;;;4970698;28;20094;-76
2021/12/04 02:26:39;;;;;;;2.27;1.40;;;5.80;99.90;;;;;;4971567;28;20043;-77
2021/12/04 02:29:04;;;;;;;1.70;1.50;;;5.80;99.90;;;;;;4974170;28;20384;-77
2021/12/04 02:31:31;;;;;;;1.83;1.70;;;5.90;99.90;;;;;;4989675;28;20125;-76
2021/12/04 02:33:56;;;;;;;2.90;1.80;;;5.90;99.90;;;;;;4971833;28;20035;-78
2021/12/04 02:36:22;;;;;;;2.50;2.10;;;5.90;99.90;;;;;;4965387;28;20031;-80
2021/12/04 02:38:51;;;;;;;2.97;2.00;;;5.90;99.90;;;;;;4974834;28;20019;-79
2021/12/04 02:41:19;;;;;;;3.07;2.20;;;5.90;99.90;;;;;;4972421;28;20030;-76
2021/12/04 02:43:46;;;;;;;2.53;1.80;;;5.90;99.90;;;;;;4959652;28;20031;-78
2021/12/04 02:46:14;;;;;;;2.27;2.07;;;5.90;99.90;;;;;;4985154;28;20038;-75
2021/12/04 02:48:42;;;;;;;2.73;2.00;;;5.90;99.90;;;;;;4990206;28;20058;-77
2021/12/04 02:51:09;;;;;;;3.00;2.30;;;5.90;99.90;;;;;;4974337;28;20076;-77
2021/12/04 02:53:34;;;;;;;2.93;2.20;;;5.90;99.90;;;;;;4975954;28;20031;-76
2021/12/04 02:56:00;;;;;;;2.67;2.47;;;5.80;99.90;;;;;;5006923;28;20126;-76
2021/12/04 02:58:26;;;;;;;3.23;2.93;;;5.70;99.90;;;;;;5007315;28;20130;-75
2021/12/04 03:00:52;;;;;;;3.80;3.10;;;5.70;99.90;;;;;;5006886;28;20065;-76
2021/12/04 03:03:19;;;;;;;4.60;3.60;;;5.60;99.90;;;;;;5007235;28;20026;-80
2021/12/04 03:05:51;;;;;;;4.33;3.60;;;5.60;99.90;;;;;;4975370;28;20023;-76
2021/12/04 03:08:17;;;;;;;3.73;3.43;;;5.60;99.90;;;;;;4989936;28;20031;-77
2021/12/04 03:10:44;;;;;;;4.10;3.70;;;5.60;99.90;;;;;;5006227;28;20034;-76
2021/12/04 03:13:10;;;;;;;4.07;3.67;;;5.60;99.90;;;;;;4975260;28;20034;-76
2021/12/04 03:15:41;;;;;;;3.83;3.47;;;5.60;99.90;;;;;;4989907;28;20030;-76
2021/12/04 03:18:34;;;;;;;4.07;3.60;;;5.70;99.90;;;;;;5067025;28;20399;-76
2021/12/04 03:21:03;;;;;;;3.87;3.57;;;5.60;99.90;;;;;;5038926;28;20440;-78
2021/12/04 03:23:31;;;;;;;3.30;3.10;;;5.60;99.90;;;;;;5084973;28;20041;-76
2021/12/04 03:25:59;;;;;;;3.60;3.20;;;5.70;99.90;;;;;;5053847;28;20037;-75
2021/12/04 03:28:26;;;;;;;4.20;3.80;;;5.70;99.90;;;;;;5048816;28;20488;-76
2021/12/04 03:30:58;;;;;;;4.53;4.13;;;5.70;99.90;;;;;;5061815;28;20063;-75
2021/12/04 03:41:21;;;;;;;4.13;3.83;;;5.70;99.90;;;;;;5056795;28;20099;-75
2021/12/04 03:43:46;;;;;;;5.23;3.90;;;5.70;99.90;;;;;;5031036;28;20033;-76
2021/12/04 03:46:16;;;;;;;3.40;2.93;;;5.70;99.90;;;;;;5048194;28;20388;-75
2021/12/04 03:51:07;;;;;;;3.27;2.47;;;5.80;99.90;;;;;;5048070;28;20056;-76
2021/12/04 03:53:34;;;;;;;4.80;1.90;;;5.80;99.90;;;;;;5048017;28;20100;-76
2021/12/04 03:56:00;;;;;;;2.33;2.00;;;5.80;99.90;;;;;;5047941;28;20057;-77
2021/12/04 03:58:26;;;;;;;2.10;1.90;;;5.80;99.90;;;;;;5056905;28;20501;-76
2021/12/04 04:00:52;;;;;;;3.93;1.80;;;5.80;99.90;;;;;;5062647;28;20040;-75
2021/12/04 04:03:18;;;;;;;1.93;1.70;;;5.80;99.90;;;;;;5060412;28;20033;-76
2021/12/04 04:05:43;;;;;;;2.13;1.53;;;5.80;99.90;;;;;;5068803;28;20028;-76
2021/12/04 04:08:12;;;;;;;2.20;1.47;;;5.70;99.90;;;;;;5048758;28;20037;-76
2021/12/04 04:10:38;;;;;;;3.20;0.93;;;5.70;99.90;;;;;;5048074;28;20032;-77
2021/12/04 04:13:07;;;;;;;1.83;1.30;;;5.60;99.90;;;;;;5035051;28;20029;-74
2021/12/04 04:15:33;;;;;;;3.93;1.10;;;5.60;99.90;;;;;;5061458;28;20108;-79
2021/12/04 04:17:59;;;;;;;1.90;1.50;;;5.60;99.90;;;;;;5082019;28;20082;-74
2021/12/04 04:20:25;;;;;;;1.60;1.10;;;5.60;99.90;;;;;;5087457;28;20132;-74
2021/12/04 04:22:50;;;;;;;2.13;1.20;;;5.60;99.90;;;;;;5069206;28;20107;-75
2021/12/04 04:25:17;;;;;;;1.93;1.07;;;5.60;99.90;;;;;;5055911;28;20075;-75
2021/12/04 04:27:43;;;;;;;1.73;0.90;;;5.60;99.90;;;;;;5058518;28;20044;-75
2021/12/04 04:30:15;;;;;;;1.60;0.87;;;5.60;99.90;;;;;;5053233;28;20033;-75
2021/12/04 04:32:42;;;;;;;1.20;0.87;;;5.60;99.90;;;;;;5043300;28;20045;-76
2021/12/04 04:35:11;;;;;;;1.63;0.97;;;5.60;99.90;;;;;;5037127;28;20041;-75
2021/12/04 04:57:33;;;;;;;2.97;2.00;;;5.70;99.90;;;;;;5044122;28;20048;-75
2021/12/04 05:13:04;;;;;;;5.37;3.03;;;5.80;99.90;;;;;;5047600;28;20060;-74
2021/12/04 05:20:49;;;;;;;3.87;2.70;;;5.80;99.90;;;;;;5053551;28;20045;-75
2021/12/04 05:23:15;;;;;;;3.78;2.90;;;5.70;99.90;;;;;;5038550;28;20436;-75
2021/12/04 05:25:41;;;;;;;4.30;2.53;;;5.70;99.90;;;;;;5048169;28;20029;-82
2021/12/04 05:28:07;;;;;;;10.30;3.40;;;5.80;99.90;;;;;;5045130;28;20494;-77
2021/12/04 05:30:34;;;;;;;2.60;2.17;;;5.80;99.90;;;;;;5053828;28;20021;-77
2021/12/04 05:33:00;;;;;;;4.10;2.67;;;5.80;99.90;;;;;;5041542;28;20121;-77
2021/12/04 05:35:26;;;;;;;3.43;2.70;;;5.80;99.90;;;;;;5034019;28;20064;-76
2021/12/04 05:37:52;;;;;;;3.80;2.60;;;5.80;99.90;;;;;;5036195;28;20120;-74
2021/12/04 05:40:18;;;;;;;4.73;3.60;;;5.80;99.90;;;;;;5053244;28;20029;-76
2021/12/04 05:42:44;;;;;;;5.50;3.17;;;5.80;99.90;;;;;;5045804;28;20041;-76
2021/12/04 05:45:23;;;;;;;3.57;2.90;;;5.70;99.90;;;;;;5032402;28;20470;-76
2021/12/04 05:48:00;;;;;;;2.70;1.80;;;5.70;99.90;;;;;;5046402;28;20029;-75
2021/12/04 05:50:42;;;;;;;3.70;1.73;;;5.60;99.90;;;;;;5031811;28;20115;-76
2021/12/04 05:53:28;;;;;;;2.70;1.57;;;5.50;99.90;;;;;;5034213;28;20028;-75
2021/12/04 05:55:55;;;;;;;2.70;1.53;;;5.50;99.90;;;;;;5051710;28;20127;-76
2021/12/04 05:58:30;;;;;;;2.43;1.53;;;5.60;99.90;;;;;;5037383;28;20072;-77
2021/12/04 06:00:59;;;;;;;2.93;1.63;;;5.50;99.90;;;;;;5031755;28;20025;-75
2021/12/04 06:03:26;;;;;;;3.13;1.53;;;5.60;99.90;;;;;;5042705;28;20029;-75
2021/12/04 06:05:52;;;;;;;1.97;1.30;;;5.50;99.90;;;;;;5052926;28;20049;-75
2021/12/04 06:08:19;;;;;;;3.57;1.53;;;5.50;99.90;;;;;;5048539;28;20060;-76
2021/12/04 06:10:45;;;;;;;3.47;2.00;;;5.50;99.90;;;;;;5051831;28;20381;-82
2021/12/04 06:13:12;;;;;;;2.67;1.67;;;5.50;99.90;;;;;;5041448;28;20497;-75
2021/12/04 06:15:37;;;;;;;2.90;1.83;;;5.40;99.90;;;;;;5033356;28;20021;-75
2021/12/04 06:18:03;;;;;;;4.77;2.03;;;5.40;99.90;;;;;;5048360;28;20079;-75
2021/12/04 06:23:13;;;;;;;4.13;2.47;;;5.40;99.90;;;;;;5031590;28;20060;-75
2021/12/04 06:25:39;;;;;;;2.50;2.20;;;5.40;99.90;;;;;;5045045;28;20024;-76
2021/12/04 06:28:06;;;;;;;3.40;2.67;;;5.40;99.90;;;;;;5043964;28;20560;-75
2021/12/04 06:30:36;;;;;;;2.87;2.57;;;5.50;99.90;;;;;;5032657;28;20033;-75
2021/12/04 06:33:05;;;;;;;3.83;2.83;;;5.40;99.90;;;;;;5035218;28;20252;-76
2021/12/04 06:35:32;;;;;;;6.03;3.80;;;5.50;99.90;;;;;;5031665;28;20034;-75
2021/12/04 06:37:59;;;;;;;5.57;3.60;;;5.50;99.90;;;;;;5018558;28;20397;-76
2021/12/04 06:40:26;;;;;;;3.67;3.37;;;5.50;99.90;;;;;;5040514;28;20417;-77
2021/12/04 06:42:54;;;;;;;4.23;3.70;;;5.50;99.90;;;;;;5030980;28;20025;-75
2021/12/04 06:45:20;;;;;;;4.37;3.40;;;5.50;99.90;;;;;;5046839;28;20037;-74
2021/12/04 06:48:08;;;;;;;4.57;3.90;;;5.50;99.90;;;;;;5048947;28;20086;-75
2021/12/04 06:53:07;;;;;;;5.33;4.00;;;5.50;99.90;;;;;;5034197;28;20041;-74
2021/12/04 06:55:38;;;;;;;4.63;3.95;;;5.50;99.90;;;;;;5036311;28;20025;-75
2021/12/04 06:58:04;;;;;;;4.57;3.70;;;5.50;99.90;;;;;;5045699;28;20096;-76
2021/12/04 07:00:30;;;;;;;4.47;3.53;;;5.50;99.90;;;;;;5038566;28;20109;-76
2021/12/04 07:02:56;;;;;;;5.07;4.40;;;5.50;99.90;;;;;;5038481;28;20093;-76
2021/12/04 07:05:22;;;;;;;6.57;4.20;;;5.50;99.90;;;;;;5040035;28;20480;-76
2021/12/04 07:07:47;;;;;;;4.07;3.57;;;5.60;99.90;;;;;;5045710;28;20384;-76
2021/12/04 07:10:13;;;;;;;5.13;3.87;;;5.60;99.90;;;;;;5051050;28;20031;-77
2021/12/04 07:12:39;;;;;;;5.30;3.67;;;5.50;99.90;;;;;;5033383;28;20057;-76
2021/12/04 07:15:05;;;;;;;4.87;4.03;;;5.50;99.90;;;;;;5030672;28;20367;-76
2021/12/04 07:17:33;;;;;;;4.77;4.27;;;5.50;99.90;;;;;;5045969;28;20108;-78
2021/12/04 07:19:59;;;;;;;4.90;3.93;;;5.50;99.90;;;;;;5051002;28;20033;-76
2021/12/04 07:22:24;;;;;;;4.57;3.97;;;5.40;99.90;;;;;;5032533;28;20466;-77
2021/12/04 07:24:50;;;;;;;5.67;4.27;;;5.50;99.90;;;;;;5031978;28;20029;-81
2021/12/04 07:27:17;;;;;;;5.80;5.20;;;5.40;99.90;;;;;;5048736;28;20113;-77
2021/12/04 07:29:43;;;;;;;5.23;4.73;;;5.40;99.90;;;;;;5030438;28;20124;-77
2021/12/04 07:32:08;;;;;;;6.33;5.03;;;5.40;99.90;;;;;;5045042;28;20113;-77
2021/12/04 07:34:34;;;;;;;5.80;4.70;;;5.40;99.90;;;;;;5045864;28;20507;-76
2021/12/04 07:37:01;;;;;;;6.37;5.13;;;5.40;99.90;;;;;;5050036;28;20083;-77
2021/12/04 07:39:26;;;;;;;6.10;4.93;;;5.40;99.90;;;;;;5050800;28;20029;-76
2021/12/04 07:41:52;;;;;;;6.37;4.30;;;5.40;99.90;;;;;;5049880;28;20409;-82
2021/12/04 07:44:18;;;;;;;6.03;4.70;;;5.40;99.90;;;;;;5048736;28;20071;-77
2021/12/04 07:46:43;;;;;;;4.97;4.30;;;5.50;99.90;;;;;;5054000;28;20401;-77
2021/12/04 07:49:09;;;;;;;6.10;4.00;;;5.50;99.90;;;;;;5036557;28;20060;-77
2021/12/04 07:51:35;;;;;;;7.60;4.30;;;5.40;99.90;;;;;;5047497;28;20029;-78
2021/12/04 07:54:01;;;;;;;5.07;4.17;;;5.40;99.90;;;;;;5035499;28;20112;-77
2021/12/04 07:56:26;;;;;;;4.67;4.23;;;5.40;99.90;;;;;;5037927;28;20389;-77
2021/12/04 07:58:52;;;;;;;9.27;5.10;;;5.40;99.90;;;;;;5038739;28;20033;-78
2021/12/04 08:01:18;;;;;;;4.93;4.43;;;5.50;99.90;;;;;;5037134;28;20039;-77
2021/12/04 08:03:44;;;;;;;5.67;4.30;;;5.50;99.90;;;;;;5051694;28;20409;-77
2021/12/04 08:06:09;;;;;;;5.40;4.33;;;5.50;99.90;;;;;;5033145;28;20029;-76
2021/12/04 08:08:35;;;;;;;6.03;4.87;;;5.50;99.90;;;;;;5043941;28;20087;-76
2021/12/04 08:11:02;;;;;;;5.57;4.63;;;5.60;99.90;;;;;;5033173;28;20433;-77
2021/12/04 08:13:28;;;;;;;8.47;5.03;;;5.70;99.90;;;;;;5025672;28;20033;-76
2021/12/04 08:15:54;;;;;;;8.03;5.20;;;5.70;99.90;;;;;;5019891;28;20021;-84
2021/12/04 08:18:21;;;;;;;7.10;5.03;;;5.70;99.90;;;;;;5052090;28;20057;-77
2021/12/04 08:20:47;;;;;;;8.23;5.73;;;5.70;99.90;;;;;;5048287;28;20033;-76
2021/12/04 08:23:13;;;;;;;16.63;5.97;;;5.70;99.90;;;;;;5034882;28;20034;-77
2021/12/04 08:25:39;;;;;;;7.87;5.30;;;5.70;99.90;;;;;;5034753;28;20109;-77
2021/12/04 08:28:06;;;;;;;6.20;5.33;;;5.70;99.90;;;;;;5019737;28;20026;-77
2021/12/04 08:30:36;;;;;;;6.50;5.73;;;5.70;99.90;;;;;;5033732;28;20028;-77
2021/12/04 08:33:02;;;;;;;6.27;5.67;;;5.70;99.90;;;;;;5042338;28;20381;-77
2021/12/04 08:35:31;;;;;;;6.70;5.97;;;5.80;99.90;;;;;;5036234;28;20025;-77
2021/12/04 08:37:58;;;;;;;7.10;6.23;;;5.80;99.90;;;;;;5044031;28;20405;-83
2021/12/04 08:40:26;;;;;;;6.70;5.70;;;5.80;99.90;;;;;;5036406;28;20059;-76
2021/12/04 08:42:52;;;;;;;6.23;5.63;;;5.80;99.90;;;;;;5035491;28;20017;-76
2021/12/04 08:45:19;;;;;;;6.60;5.93;;;5.80;99.90;;;;;;5043054;28;20017;-76
2021/12/04 08:47:45;;;;;;;6.67;6.07;;;5.90;99.90;;;;;;5055109;28;20060;-77
2021/12/04 08:50:17;;;;;;;7.27;6.43;;;5.90;99.90;;;;;;5046592;28;20103;-77
2021/12/04 08:52:44;;;;;;;7.47;6.68;;;6.00;99.90;;;;;;5053583;28;20154;-77
2021/12/04 08:55:10;;;;;;;9.43;6.20;;;6.00;99.90;;;;;;5052893;28;20029;-77
2021/12/04 08:57:36;;;;;;;8.43;6.97;;;6.00;99.90;;;;;;5053008;28;20086;-77
2021/12/04 09:00:08;;;;;;;7.97;7.10;;;6.10;99.90;;;;;;5045233;28;20030;-77
2021/12/04 09:02:35;;;;;;;7.65;6.60;;;6.20;99.90;;;;;;5033877;28;20035;-77
2021/12/04 09:05:01;;;;;;;8.27;7.20;;;6.30;99.90;;;;;;5033417;28;20057;-82
2021/12/04 09:07:26;;;;;;;8.70;7.60;;;6.20;99.90;;;;;;5039789;28;20045;-77
2021/12/04 09:09:55;;;;;;;12.53;8.40;;;6.20;99.90;;;;;;5034959;28;20051;-77
2021/12/04 09:12:23;;;;;;;10.30;8.37;;;6.20;99.90;;;;;;5050780;28;20025;-77
2021/12/04 09:14:49;;;;;;;11.07;8.60;;;6.30;99.90;;;;;;5046453;28;20029;-77
2021/12/04 09:17:16;;;;;;;14.30;10.17;;;6.40;99.90;;;;;;5068343;28;20126;-78
2021/12/04 09:19:42;;;;;;;9.37;8.10;;;6.50;99.90;;;;;;5049826;28;20055;-78
2021/12/04 09:22:15;;;;;;;10.97;8.37;;;6.50;99.90;;;;;;5040053;28;20030;-75
2021/12/04 09:24:43;;;;;;;10.85;7.68;;;6.40;99.90;;;;;;5034521;28;20059;-78
2021/12/04 09:27:16;;;;;;;11.67;8.43;;;6.40;99.90;;;;;;5028203;28;20025;-78
2021/12/04 10:35:04;;;;;;;8.87;5.73;;;6.80;99.70;;;;;;5038985;28;20036;-79
2021/12/04 10:37:31;;;;;;;8.17;6.60;;;6.80;99.70;;;;;;5030795;28;20030;-76
2021/12/04 10:40:07;;;;;;;10.27;6.27;;;6.80;99.70;;;;;;5035098;28;20045;-77
2021/12/04 10:42:52;;;;;;;10.67;7.37;;;6.90;99.80;;;;;;5050397;28;20119;-76
2021/12/04 10:45:19;;;;;;;9.13;5.70;;;6.90;99.70;;;;;;5038100;28;20377;-77
2021/12/04 10:47:58;;;;;;;8.67;7.40;;;7.00;99.70;;;;;;5044446;28;20028;-76
2021/12/04 10:53:15;;;;;;;8.17;5.77;;;7.00;99.80;;;;;;5050463;28;20123;-82
2021/12/04 11:04:13;;;;;;;6.00;5.40;;;7.00;99.40;;;;;;5041112;28;20045;-78
2021/12/04 11:36:56;;;;;;;4.13;2.77;;;7.60;99.00;;;;;;5030734;28;20164;-77
2021/12/04 11:39:39;;;;;;;7.90;5.27;;;7.60;98.50;;;;;;5037810;28;20098;-79
2021/12/04 11:42:22;;;;;;;;;;;7.50;98.00;;;;;;5045454;28;20046;-79
2021/12/04 11:44:56;;;;;;;6.22;4.68;;;7.50;98.10;;;;;;5057145;28;19909;-76
2021/12/04 11:47:22;;;;;;;6.70;3.17;;;7.60;98.40;;;;;;5050785;28;20026;-77
2021/12/04 11:49:48;;;;;;;11.47;7.83;;;7.50;98.10;;;;;;5073400;28;20131;-76
2021/12/04 11:52:20;;;;;;;8.90;5.77;;;7.60;98.40;;;;;;5071394;28;20032;-84
2021/12/04 11:54:58;;;;;;;19.97;14.33;;;7.70;98.30;;;;;;5063674;28;20053;-77
2021/12/04 11:57:33;;;;;;;16.07;10.07;;;7.70;98.30;;;;;;5072217;28;20344;-78
2021/12/04 12:00:29;;;;;;;9.63;6.03;;;7.90;98.50;;;;;;5064331;28;20051;-77
2021/12/04 12:03:14;;;;;;;9.13;6.03;;;8.00;98.30;;;;;;5052715;28;20025;-81
2021/12/04 12:05:48;;;;;;;7.10;3.93;;;8.00;97.60;;;;;;5037442;28;20067;-78
2021/12/04 12:08:45;;;;;;;7.73;5.97;;;7.90;97.70;;;;;;5040387;28;20057;-77
2021/12/04 12:11:29;;;;;;;7.13;6.07;;;7.70;97.60;;;;;;5038577;28;20034;-77
2021/12/04 12:14:10;;;;;;;4.10;3.10;;;7.70;97.90;;;;;;5048679;28;20061;-78
2021/12/04 12:16:41;;;;;;;7.83;5.03;;;7.60;97.90;;;;;;5040196;28;20091;-77
2021/12/04 12:19:22;;;;;;;6.30;4.37;;;7.50;98.20;;;;;;5056333;28;20488;-78
2021/12/04 12:38:53;;;;;;;25.93;18.50;;;7.60;99.50;;;;;;5040300;28;20040;-77
2021/12/04 12:41:42;;;;;;;18.77;13.43;;;7.70;99.90;;;;;;5052827;28;20115;-73
2021/12/04 12:44:27;;;;;;;30.80;22.50;;;7.70;99.90;;;;;;5057834;28;20028;-73
2021/12/04 12:47:04;;;;;;;43.33;31.20;;;7.80;99.90;;;;;;5049772;28;20083;-73
2021/12/04 12:49:39;;;;;;;25.37;18.27;;;7.90;99.90;;;;;;5048635;28;20055;-73
2021/12/04 12:52:13;;;;;;;23.70;18.73;;;8.00;99.90;;;;;;5053073;28;20025;-73
2021/12/04 12:54:51;;;;;;;26.83;19.57;;;8.00;99.90;;;;;;5054392;28;20025;-73
2021/12/04 12:57:23;;;;;;;24.70;19.10;;;8.10;99.90;;;;;;5042384;28;20025;-76
2021/12/04 13:11:47;;;;;;;22.43;16.40;;;7.80;99.90;;;;;;5052021;28;20468;-76
2021/12/04 13:14:15;;;;;;;22.17;15.97;;;7.70;99.90;;;;;;5050331;28;20027;-77
2021/12/04 13:16:47;;;;;;;19.07;15.17;;;7.60;99.90;;;;;;5048635;28;20013;-76
2021/12/04 13:19:15;;;;;;;19.98;16.98;;;7.50;99.90;;;;;;5048780;28;20032;-76
2021/12/04 13:21:44;;;;;;;17.63;14.77;;;7.40;99.90;;;;;;5047682;28;20025;-75
2021/12/04 13:24:12;;;;;;;18.80;14.20;;;7.30;99.90;;;;;;5052341;28;20366;-77
2021/12/04 13:26:46;;;;;;;15.07;13.20;;;7.30;99.90;;;;;;5048051;28;20035;-76
2021/12/04 13:29:15;;;;;;;21.70;15.93;;;7.20;99.90;;;;;;5042225;28;20522;-81
2021/12/04 13:31:41;;;;;;;23.03;15.90;;;7.20;99.90;;;;;;5038245;28;20034;-75
2021/12/04 13:34:09;;;;;;;16.07;13.60;;;7.20;99.90;;;;;;5039269;28;20032;-75
2021/12/04 13:36:36;;;;;;;15.53;12.17;;;7.20;99.90;;;;;;5042205;28;20029;-75
2021/12/04 13:39:08;;;;;;;16.17;12.40;;;7.10;99.90;;;;;;5048243;28;20105;-78
2021/12/04 13:41:35;;;;;;;40.40;30.30;;;7.00;99.90;;;;;;5039000;28;20458;-76
2021/12/04 13:44:05;;;;;;;40.90;29.40;;;7.00;99.90;;;;;;5046715;28;20035;-78
2021/12/04 13:46:54;;;;;;;42.23;32.07;;;7.20;99.90;;;;;;5046576;28;20036;-81
2021/12/04 13:49:30;;;;;;;43.80;32.47;;;7.30;99.90;;;;;;5048333;28;20044;-74
2021/12/04 13:52:16;;;;;;;45.30;33.87;;;7.50;99.90;;;;;;5060237;28;20029;-76
2021/12/04 13:54:47;;;;;;;48.97;36.57;;;7.60;99.90;;;;;;5034026;28;20466;-75
2021/12/04 13:57:14;;;;;;;37.13;27.87;;;7.70;99.90;;;;;;5050422;28;20397;-76
2021/12/04 13:59:42;;;;;;;34.67;24.87;;;7.80;99.90;;;;;;5051869;28;20393;-74
2021/12/04 14:02:22;;;;;;;37.63;29.00;;;7.80;99.90;;;;;;5045608;28;20096;-75
2021/12/04 14:04:55;;;;;;;45.10;33.77;;;7.80;99.90;;;;;;5037372;28;20036;-75
2021/12/04 14:07:21;;;;;;;31.02;23.88;;;7.90;99.90;;;;;;5062728;28;20112;-75
2021/12/04 14:09:46;;;;;;;31.27;23.73;;;7.90;99.90;;;;;;5036673;28;20093;-76
2021/12/04 14:12:12;;;;;;;39.13;28.60;;;7.90;99.90;;;;;;5052469;28;20109;-75
2021/12/04 14:14:38;;;;;;;29.23;22.23;;;7.80;99.90;;;;;;5037988;28;20036;-75
2021/12/04 14:17:08;;;;;;;29.97;23.90;;;7.80;99.90;;;;;;5047608;28;20068;-75
2021/12/04 14:19:34;;;;;;;30.00;23.93;;;7.80;99.90;;;;;;5040098;28;20116;-80
2021/12/04 14:22:10;;;;;;;28.63;22.40;;;7.80;99.90;;;;;;5033223;28;20043;-77
2021/12/04 14:24:44;;;;;;;24.73;20.20;;;7.80;99.90;;;;;;5037337;28;20040;-80
2021/12/04 14:27:12;;;;;;;30.60;22.77;;;7.80;99.90;;;;;;5037267;28;20029;-81
2021/12/04 14:29:48;;;;;;;24.70;20.00;;;7.80;99.90;;;;;;5033740;28;20384;-75
2021/12/04 14:32:16;;;;;;;20.23;16.17;;;7.80;99.90;;;;;;5039547;28;20112;-77
2021/12/04 14:34:43;;;;;;;27.17;21.60;;;7.70;99.90;;;;;;5036818;28;20026;-76
2021/12/04 14:37:12;;;;;;;32.13;24.70;;;7.70;99.90;;;;;;5038191;28;20034;-75
2021/12/04 14:39:45;;;;;;;28.07;21.27;;;7.70;99.90;;;;;;5032782;28;20030;-76
2021/12/04 14:42:16;;;;;;;26.10;21.00;;;7.70;99.90;;;;;;5030550;28;20424;-75
2021/12/04 14:44:47;;;;;;;28.70;21.30;;;7.80;99.90;;;;;;5036992;28;20104;-76
2021/12/04 14:47:12;;;;;;;20.63;17.00;;;7.70;99.90;;;;;;5036036;28;20044;-75
2021/12/04 14:49:41;;;;;;;25.37;20.23;;;7.70;99.90;;;;;;5034669;28;20482;-76
2021/12/04 14:52:07;;;;;;;24.97;20.67;;;7.70;99.90;;;;;;5044134;28;20063;-75
2021/12/04 14:54:35;;;;;;;26.17;20.57;;;7.70;99.90;;;;;;5034410;28;20057;-74
2021/12/04 14:57:11;;;;;;;21.07;17.10;;;7.80;99.90;;;;;;5042898;28;20029;-74
2021/12/04 14:59:37;;;;;;;22.47;17.47;;;7.80;99.90;;;;;;5049128;28;20028;-83
2021/12/04 15:02:17;;;;;;;17.33;13.20;;;7.80;99.90;;;;;;5049877;28;20029;-77
2021/12/04 15:04:43;;;;;;;19.07;15.63;;;7.80;99.90;;;;;;5050427;28;20060;-76
2021/12/04 15:07:21;;;;;;;22.07;18.27;;;7.80;99.90;;;;;;5045055;28;20512;-76
2021/12/04 15:09:47;;;;;;;19.00;14.50;;;7.70;99.90;;;;;;5045025;28;20079;-77
2021/12/04 15:12:27;;;;;;;19.57;16.13;;;7.70;99.90;;;;;;5051522;28;20032;-81
2021/12/04 15:15:04;;;;;;;30.30;25.27;;;7.70;99.90;;;;;;5040747;28;20163;-76
2021/12/04 15:17:30;;;;;;;23.60;18.57;;;7.70;99.90;;;;;;5047188;28;20057;-80
2021/12/04 15:20:18;;;;;;;18.53;15.70;;;7.70;99.90;;;;;;5045835;28;20087;-77
2021/12/04 15:22:46;;;;;;;20.37;16.27;;;7.70;99.90;;;;;;5039904;28;20067;-75
2021/12/04 15:25:22;;;;;;;15.70;13.47;;;7.70;99.90;;;;;;5047760;28;20013;-74
2021/12/04 15:27:48;;;;;;;15.67;12.90;;;7.60;99.90;;;;;;5035176;28;20029;-75
2021/12/04 15:30:17;;;;;;;14.97;13.10;;;7.60;99.90;;;;;;5034995;28;20036;-76
2021/12/04 15:32:44;;;;;;;22.17;16.63;;;7.50;99.90;;;;;;5052538;28;20025;-75
2021/12/04 15:35:32;;;;;;;12.33;10.90;;;7.40;99.90;;;;;;5047386;28;20025;-77
2021/12/04 15:38:07;;;;;;;13.60;11.07;;;7.40;99.90;;;;;;5047056;28;20025;-85
2021/12/04 15:44:05;;;;;;;;;;;7.20;99.90;;;;;;5023493;28;20148;-80
2021/12/04 15:49:24;;;;;;;14.15;11.70;;;7.20;99.90;;;;;;5042124;28;20033;-77
2021/12/04 15:55:03;;;;;;;16.30;13.17;;;7.20;99.90;;;;;;5037938;28;20037;-76
2021/12/04 15:57:30;;;;;;;13.13;11.73;;;7.20;99.90;;;;;;5028769;28;20041;-76
2021/12/04 16:00:00;;;;;;;15.77;12.67;;;7.20;99.90;;;;;;5042240;28;20033;-75
2021/12/04 16:02:34;;;;;;;14.37;12.23;;;7.20;99.90;;;;;;5061256;28;20115;-76
2021/12/04 16:05:10;;;;;;;18.00;13.93;;;7.10;99.90;;;;;;5030330;28;20059;-76
2021/12/04 16:07:36;;;;;;;16.73;12.83;;;7.10;99.90;;;;;;5042946;28;20025;-76
2021/12/04 16:10:12;;;;;;;13.93;10.73;;;7.10;99.90;;;;;;5029215;28;20036;-76
2021/12/04 16:12:38;;;;;;;12.63;10.00;;;7.20;99.90;;;;;;5051876;28;20489;-76
2021/12/04 16:15:06;;;;;;;13.33;10.03;;;7.20;99.90;;;;;;5030066;28;20025;-77
2021/12/04 16:17:32;;;;;;;12.97;10.60;;;7.10;99.90;;;;;;5047256;28;20064;-77
2021/12/04 16:20:04;;;;;;;14.33;10.20;;;7.10;99.90;;;;;;5038282;28;20032;-80
2021/12/04 16:22:36;;;;;;;15.13;11.45;;;7.20;99.90;;;;;;5044358;28;20033;-75
2021/12/04 16:25:04;;;;;;;14.50;8.53;;;7.20;99.90;;;;;;5047608;28;20032;-76
2021/12/04 16:27:33;;;;;;;18.37;11.73;;;7.20;99.90;;;;;;5052478;28;20033;-75
2021/12/04 16:30:12;;;;;;;12.77;10.30;;;7.20;99.90;;;;;;5031313;28;20032;-75
2021/12/04 16:32:56;;;;;;;18.27;11.83;;;7.20;99.90;;;;;;5042129;28;20036;-75